sensor_id;sensor_type;location;lat;lon;timestamp;P1;durP1;ratioP1;P2;durP2;ratioP2
19651;SDS011;9974;52.146;14.668;2023-08-24T00:01:08;2.42;;;1.45;;
19651;SDS011;9974;52.146;14.668;2023-08-24T00:03:37;2.80;;;1.55;;
19651;SDS011;9974;52.146;14.668;2023-08-24T00:06:03;2.88;;;1.98;;
19651;SDS011;9974;52.146;14.668;2023-08-24T00:08:29;6.20;;;2.40;;
19651;SDS011;9974;52.146;14.668;2023-08-24T00:10:55;2.38;;;1.67;;
19651;SDS011;9974;52.146;14.668;2023-08-24T00:13:20;1.58;;;1.38;;
19651;SDS011;9974;52.146;14.668;2023-08-24T00:15:46;3.38;;;2.30;;
19651;SDS011;9974;52.146;14.668;2023-08-24T00:18:12;2.95;;;1.98;;
19651;SDS011;9974;52.146;14.668;2023-08-24T00:20:38;2.63;;;1.63;;
19651;SDS011;9974;52.146;14.668;2023-08-24T00:23:03;3.17;;;1.88;;
19651;SDS011;9974;52.146;14.668;2023-08-24T00:25:29;4.05;;;1.40;;
19651;SDS011;9974;52.146;14.668;2023-08-24T00:27:56;2.92;;;1.90;;
19651;SDS011;9974;52.146;14.668;2023-08-24T00:30:22;2.20;;;1.60;;
19651;SDS011;9974;52.146;14.668;2023-08-24T00:32:48;3.33;;;2.35;;
19651;SDS011;9974;52.146;14.668;2023-08-24T00:35:15;2.55;;;1.80;;
19651;SDS011;9974;52.146;14.668;2023-08-24T00:37:41;2.80;;;1.75;;
19651;SDS011;9974;52.146;14.668;2023-08-24T00:40:07;4.78;;;1.77;;
19651;SDS011;9974;52.146;14.668;2023-08-24T00:42:41;3.17;;;1.70;;
19651;SDS011;9974;52.146;14.668;2023-08-24T00:45:09;13.68;;;3.08;;
19651;SDS011;9974;52.146;14.668;2023-08-24T00:47:40;3.83;;;2.13;;
19651;SDS011;9974;52.146;14.668;2023-08-24T00:50:09;6.85;;;1.83;;
19651;SDS011;9974;52.146;14.668;2023-08-24T00:52:36;11.45;;;2.33;;
19651;SDS011;9974;52.146;14.668;2023-08-24T00:55:04;11.48;;;2.85;;
19651;SDS011;9974;52.146;14.668;2023-08-24T00:57:30;14.85;;;2.65;;
19651;SDS011;9974;52.146;14.668;2023-08-24T00:59:57;21.33;;;2.67;;
19651;SDS011;9974;52.146;14.668;2023-08-24T01:02:30;7.47;;;2.50;;
19651;SDS011;9974;52.146;14.668;2023-08-24T01:04:57;8.73;;;2.65;;
19651;SDS011;9974;52.146;14.668;2023-08-24T01:07:24;5.05;;;2.53;;
19651;SDS011;9974;52.146;14.668;2023-08-24T01:09:50;7.75;;;2.75;;
19651;SDS011;9974;52.146;14.668;2023-08-24T01:18:14;2.05;;;1.45;;
19651;SDS011;9974;52.146;14.668;2023-08-24T01:20:44;2.45;;;1.92;;
19651;SDS011;9974;52.146;14.668;2023-08-24T01:23:15;2.55;;;2.03;;
19651;SDS011;9974;52.146;14.668;2023-08-24T01:28:53;2.38;;;1.50;;
19651;SDS011;9974;52.146;14.668;2023-08-24T01:31:19;2.22;;;1.60;;
19651;SDS011;9974;52.146;14.668;2023-08-24T01:33:45;3.45;;;1.58;;
19651;SDS011;9974;52.146;14.668;2023-08-24T01:36:12;1.88;;;1.50;;
19651;SDS011;9974;52.146;14.668;2023-08-24T01:38:41;1.85;;;1.23;;
19651;SDS011;9974;52.146;14.668;2023-08-24T01:41:16;3.13;;;1.75;;
19651;SDS011;9974;52.146;14.668;2023-08-24T01:43:52;1.52;;;1.23;;
19651;SDS011;9974;52.146;14.668;2023-08-24T01:46:20;1.40;;;0.90;;
19651;SDS011;9974;52.146;14.668;2023-08-24T01:48:47;1.75;;;1.40;;
19651;SDS011;9974;52.146;14.668;2023-08-24T01:51:14;2.70;;;1.45;;
19651;SDS011;9974;52.146;14.668;2023-08-24T01:53:40;1.58;;;1.48;;
19651;SDS011;9974;52.146;14.668;2023-08-24T01:56:08;3.92;;;2.03;;
19651;SDS011;9974;52.146;14.668;2023-08-24T01:58:37;1.60;;;0.50;;
19651;SDS011;9974;52.146;14.668;2023-08-24T02:01:04;1.15;;;1.05;;
19651;SDS011;9974;52.146;14.668;2023-08-24T02:03:30;0.43;;;0.40;;
19651;SDS011;9974;52.146;14.668;2023-08-24T02:05:56;1.20;;;0.90;;
19651;SDS011;9974;52.146;14.668;2023-08-24T02:08:22;1.08;;;0.90;;
19651;SDS011;9974;52.146;14.668;2023-08-24T02:10:48;0.77;;;0.77;;
19651;SDS011;9974;52.146;14.668;2023-08-24T02:13:13;1.40;;;0.93;;
19651;SDS011;9974;52.146;14.668;2023-08-24T02:15:39;0.65;;;0.55;;
19651;SDS011;9974;52.146;14.668;2023-08-24T02:18:05;1.50;;;1.27;;
19651;SDS011;9974;52.146;14.668;2023-08-24T02:20:35;1.67;;;0.70;;
19651;SDS011;9974;52.146;14.668;2023-08-24T02:23:02;0.40;;;0.40;;
19651;SDS011;9974;52.146;14.668;2023-08-24T02:25:31;0.50;;;0.40;;
19651;SDS011;9974;52.146;14.668;2023-08-24T02:27:58;0.32;;;0.30;;
19651;SDS011;9974;52.146;14.668;2023-08-24T02:30:24;0.57;;;0.30;;
19651;SDS011;9974;52.146;14.668;2023-08-24T02:32:50;0.10;;;0.10;;
19651;SDS011;9974;52.146;14.668;2023-08-24T02:35:17;0.20;;;0.20;;
19651;SDS011;9974;52.146;14.668;2023-08-24T02:37:43;0.60;;;0.60;;
19651;SDS011;9974;52.146;14.668;2023-08-24T02:40:09;0.43;;;0.38;;
19651;SDS011;9974;52.146;14.668;2023-08-24T02:42:36;0.10;;;0.10;;
19651;SDS011;9974;52.146;14.668;2023-08-24T02:45:02;0.60;;;0.55;;
19651;SDS011;9974;52.146;14.668;2023-08-24T02:47:29;0.20;;;0.20;;
19651;SDS011;9974;52.146;14.668;2023-08-24T02:49:55;1.67;;;0.80;;
19651;SDS011;9974;52.146;14.668;2023-08-24T02:52:20;0.28;;;0.22;;
19651;SDS011;9974;52.146;14.668;2023-08-24T02:54:46;0.30;;;0.30;;
19651;SDS011;9974;52.146;14.668;2023-08-24T02:57:12;0.20;;;0.20;;
19651;SDS011;9974;52.146;14.668;2023-08-24T02:59:38;0.57;;;0.43;;
19651;SDS011;9974;52.146;14.668;2023-08-24T03:02:04;1.15;;;0.75;;
19651;SDS011;9974;52.146;14.668;2023-08-24T03:04:29;0.50;;;0.50;;
19651;SDS011;9974;52.146;14.668;2023-08-24T03:06:55;1.55;;;1.10;;
19651;SDS011;9974;52.146;14.668;2023-08-24T03:09:21;0.73;;;0.73;;
19651;SDS011;9974;52.146;14.668;2023-08-24T03:11:47;0.75;;;0.70;;
19651;SDS011;9974;52.146;14.668;2023-08-24T03:14:13;0.93;;;0.90;;
19651;SDS011;9974;52.146;14.668;2023-08-24T03:16:39;0.30;;;0.30;;
19651;SDS011;9974;52.146;14.668;2023-08-24T03:19:04;0.57;;;0.57;;
19651;SDS011;9974;52.146;14.668;2023-08-24T03:21:30;2.08;;;1.20;;
19651;SDS011;9974;52.146;14.668;2023-08-24T03:23:56;0.88;;;0.82;;
19651;SDS011;9974;52.146;14.668;2023-08-24T03:26:22;0.40;;;0.40;;
19651;SDS011;9974;52.146;14.668;2023-08-24T03:28:48;0.93;;;0.70;;
19651;SDS011;9974;52.146;14.668;2023-08-24T03:31:14;0.10;;;0.10;;
19651;SDS011;9974;52.146;14.668;2023-08-24T03:33:41;1.35;;;0.65;;
19651;SDS011;9974;52.146;14.668;2023-08-24T03:36:06;3.50;;;0.60;;
19651;SDS011;9974;52.146;14.668;2023-08-24T03:38:32;0.65;;;0.65;;
19651;SDS011;9974;52.146;14.668;2023-08-24T03:41:01;1.10;;;0.88;;
19651;SDS011;9974;52.146;14.668;2023-08-24T03:43:31;0.90;;;0.80;;
19651;SDS011;9974;52.146;14.668;2023-08-24T03:45:58;0.30;;;0.30;;
19651;SDS011;9974;52.146;14.668;2023-08-24T03:48:24;1.30;;;0.98;;
19651;SDS011;9974;52.146;14.668;2023-08-24T03:50:49;5.78;;;0.75;;
19651;SDS011;9974;52.146;14.668;2023-08-24T03:53:18;0.47;;;0.45;;
19651;SDS011;9974;52.146;14.668;2023-08-24T03:55:46;0.30;;;0.30;;
19651;SDS011;9974;52.146;14.668;2023-08-24T03:58:14;0.80;;;0.47;;
19651;SDS011;9974;52.146;14.668;2023-08-24T04:00:40;0.80;;;0.68;;
19651;SDS011;9974;52.146;14.668;2023-08-24T04:03:06;1.60;;;1.05;;
19651;SDS011;9974;52.146;14.668;2023-08-24T04:05:33;2.30;;;1.25;;
19651;SDS011;9974;52.146;14.668;2023-08-24T04:07:58;0.30;;;0.30;;
19651;SDS011;9974;52.146;14.668;2023-08-24T04:10:25;0.20;;;0.20;;
19651;SDS011;9974;52.146;14.668;2023-08-24T04:12:52;1.30;;;0.70;;
19651;SDS011;9974;52.146;14.668;2023-08-24T04:15:18;1.35;;;0.52;;
19651;SDS011;9974;52.146;14.668;2023-08-24T04:17:44;0.65;;;0.47;;
19651;SDS011;9974;52.146;14.668;2023-08-24T04:20:10;1.13;;;0.95;;
19651;SDS011;9974;52.146;14.668;2023-08-24T04:22:36;0.65;;;0.40;;
19651;SDS011;9974;52.146;14.668;2023-08-24T04:25:02;1.42;;;0.93;;
19651;SDS011;9974;52.146;14.668;2023-08-24T04:27:28;0.25;;;0.25;;
19651;SDS011;9974;52.146;14.668;2023-08-24T04:29:54;1.17;;;0.88;;
19651;SDS011;9974;52.146;14.668;2023-08-24T04:32:20;0.20;;;0.20;;
19651;SDS011;9974;52.146;14.668;2023-08-24T04:34:47;0.43;;;0.43;;
19651;SDS011;9974;52.146;14.668;2023-08-24T04:37:12;0.50;;;0.50;;
19651;SDS011;9974;52.146;14.668;2023-08-24T04:39:38;0.50;;;0.47;;
19651;SDS011;9974;52.146;14.668;2023-08-24T04:42:04;0.30;;;0.30;;
19651;SDS011;9974;52.146;14.668;2023-08-24T04:44:31;0.30;;;0.30;;
19651;SDS011;9974;52.146;14.668;2023-08-24T04:46:57;0.52;;;0.52;;
19651;SDS011;9974;52.146;14.668;2023-08-24T04:49:22;0.70;;;0.60;;
19651;SDS011;9974;52.146;14.668;2023-08-24T04:51:48;0.90;;;0.75;;
19651;SDS011;9974;52.146;14.668;2023-08-24T04:54:14;0.60;;;0.60;;
19651;SDS011;9974;52.146;14.668;2023-08-24T04:56:40;0.90;;;0.63;;
19651;SDS011;9974;52.146;14.668;2023-08-24T04:59:05;0.50;;;0.50;;
19651;SDS011;9974;52.146;14.668;2023-08-24T05:01:32;1.27;;;0.70;;
19651;SDS011;9974;52.146;14.668;2023-08-24T05:03:59;0.90;;;0.55;;
19651;SDS011;9974;52.146;14.668;2023-08-24T05:06:24;0.60;;;0.60;;
19651;SDS011;9974;52.146;14.668;2023-08-24T05:08:50;0.32;;;0.32;;
19651;SDS011;9974;52.146;14.668;2023-08-24T05:11:17;0.35;;;0.35;;
19651;SDS011;9974;52.146;14.668;2023-08-24T05:13:51;1.10;;;0.95;;
19651;SDS011;9974;52.146;14.668;2023-08-24T05:16:16;0.45;;;0.40;;
19651;SDS011;9974;52.146;14.668;2023-08-24T05:18:42;0.85;;;0.85;;
19651;SDS011;9974;52.146;14.668;2023-08-24T05:21:08;1.13;;;0.95;;
19651;SDS011;9974;52.146;14.668;2023-08-24T05:23:34;0.43;;;0.43;;
19651;SDS011;9974;52.146;14.668;2023-08-24T05:26:01;0.35;;;0.35;;
19651;SDS011;9974;52.146;14.668;2023-08-24T05:28:28;0.35;;;0.35;;
19651;SDS011;9974;52.146;14.668;2023-08-24T05:30:55;0.20;;;0.20;;
19651;SDS011;9974;52.146;14.668;2023-08-24T05:33:22;0.28;;;0.28;;
19651;SDS011;9974;52.146;14.668;2023-08-24T05:35:50;1.58;;;1.27;;
19651;SDS011;9974;52.146;14.668;2023-08-24T05:38:17;0.85;;;0.60;;
19651;SDS011;9974;52.146;14.668;2023-08-24T05:40:43;0.30;;;0.30;;
19651;SDS011;9974;52.146;14.668;2023-08-24T05:43:12;1.42;;;0.98;;
19651;SDS011;9974;52.146;14.668;2023-08-24T05:45:38;0.30;;;0.30;;
19651;SDS011;9974;52.146;14.668;2023-08-24T05:48:09;1.95;;;0.50;;
19651;SDS011;9974;52.146;14.668;2023-08-24T05:50:35;2.17;;;1.10;;
19651;SDS011;9974;52.146;14.668;2023-08-24T05:53:02;0.15;;;0.15;;
19651;SDS011;9974;52.146;14.668;2023-08-24T05:55:28;0.57;;;0.55;;
19651;SDS011;9974;52.146;14.668;2023-08-24T05:57:54;0.40;;;0.40;;
19651;SDS011;9974;52.146;14.668;2023-08-24T06:00:19;0.57;;;0.57;;
19651;SDS011;9974;52.146;14.668;2023-08-24T06:02:47;0.60;;;0.60;;
19651;SDS011;9974;52.146;14.668;2023-08-24T06:05:12;3.65;;;2.10;;
19651;SDS011;9974;52.146;14.668;2023-08-24T06:07:38;1.30;;;0.77;;
19651;SDS011;9974;52.146;14.668;2023-08-24T06:10:04;0.93;;;0.82;;
19651;SDS011;9974;52.146;14.668;2023-08-24T06:12:30;0.55;;;0.40;;
19651;SDS011;9974;52.146;14.668;2023-08-24T06:14:56;0.40;;;0.40;;
19651;SDS011;9974;52.146;14.668;2023-08-24T06:17:22;0.55;;;0.55;;
19651;SDS011;9974;52.146;14.668;2023-08-24T06:19:48;0.17;;;0.17;;
19651;SDS011;9974;52.146;14.668;2023-08-24T06:22:14;0.90;;;0.65;;
19651;SDS011;9974;52.146;14.668;2023-08-24T06:24:39;0.30;;;0.30;;
19651;SDS011;9974;52.146;14.668;2023-08-24T06:27:05;0.57;;;0.57;;
19651;SDS011;9974;52.146;14.668;2023-08-24T06:29:31;1.65;;;0.68;;
19651;SDS011;9974;52.146;14.668;2023-08-24T06:31:56;0.65;;;0.65;;
19651;SDS011;9974;52.146;14.668;2023-08-24T06:34:22;0.55;;;0.40;;
19651;SDS011;9974;52.146;14.668;2023-08-24T06:36:49;1.00;;;0.90;;
19651;SDS011;9974;52.146;14.668;2023-08-24T06:39:15;1.13;;;1.00;;
19651;SDS011;9974;52.146;14.668;2023-08-24T06:41:41;0.80;;;0.70;;
19651;SDS011;9974;52.146;14.668;2023-08-24T06:44:07;0.20;;;0.20;;
19651;SDS011;9974;52.146;14.668;2023-08-24T06:46:33;0.47;;;0.47;;
19651;SDS011;9974;52.146;14.668;2023-08-24T06:48:58;0.52;;;0.52;;
19651;SDS011;9974;52.146;14.668;2023-08-24T06:51:27;0.93;;;0.88;;
19651;SDS011;9974;52.146;14.668;2023-08-24T06:53:54;1.10;;;1.00;;
19651;SDS011;9974;52.146;14.668;2023-08-24T06:56:20;0.35;;;0.35;;
19651;SDS011;9974;52.146;14.668;2023-08-24T06:58:47;7.30;;;2.45;;
19651;SDS011;9974;52.146;14.668;2023-08-24T07:01:13;1.02;;;0.70;;
19651;SDS011;9974;52.146;14.668;2023-08-24T07:03:39;1.35;;;1.17;;
19651;SDS011;9974;52.146;14.668;2023-08-24T07:06:05;1.58;;;0.93;;
19651;SDS011;9974;52.146;14.668;2023-08-24T07:08:32;0.25;;;0.25;;
19651;SDS011;9974;52.146;14.668;2023-08-24T07:10:58;0.70;;;0.70;;
19651;SDS011;9974;52.146;14.668;2023-08-24T07:13:24;0.55;;;0.45;;
19651;SDS011;9974;52.146;14.668;2023-08-24T07:15:51;0.57;;;0.57;;
19651;SDS011;9974;52.146;14.668;2023-08-24T07:18:17;1.15;;;0.60;;
19651;SDS011;9974;52.146;14.668;2023-08-24T07:20:42;0.30;;;0.30;;
19651;SDS011;9974;52.146;14.668;2023-08-24T07:23:08;0.68;;;0.45;;
19651;SDS011;9974;52.146;14.668;2023-08-24T07:25:34;1.58;;;0.52;;
19651;SDS011;9974;52.146;14.668;2023-08-24T07:28:00;0.30;;;0.30;;
19651;SDS011;9974;52.146;14.668;2023-08-24T07:30:28;0.20;;;0.20;;
19651;SDS011;9974;52.146;14.668;2023-08-24T07:32:54;3.50;;;0.68;;
19651;SDS011;9974;52.146;14.668;2023-08-24T07:35:20;0.28;;;0.28;;
19651;SDS011;9974;52.146;14.668;2023-08-24T07:37:47;0.63;;;0.55;;
19651;SDS011;9974;52.146;14.668;2023-08-24T07:40:13;0.65;;;0.25;;
19651;SDS011;9974;52.146;14.668;2023-08-24T07:42:46;0.45;;;0.17;;
19651;SDS011;9974;52.146;14.668;2023-08-24T07:45:15;1.25;;;0.77;;
19651;SDS011;9974;52.146;14.668;2023-08-24T07:47:42;0.20;;;0.20;;
19651;SDS011;9974;52.146;14.668;2023-08-24T07:50:08;0.13;;;0.13;;
19651;SDS011;9974;52.146;14.668;2023-08-24T07:52:36;9.45;;;0.80;;
19651;SDS011;9974;52.146;14.668;2023-08-24T07:55:06;0.25;;;0.25;;
19651;SDS011;9974;52.146;14.668;2023-08-24T07:57:33;0.10;;;0.10;;
19651;SDS011;9974;52.146;14.668;2023-08-24T07:59:59;0.22;;;0.20;;
19651;SDS011;9974;52.146;14.668;2023-08-24T08:02:25;0.57;;;0.38;;
19651;SDS011;9974;52.146;14.668;2023-08-24T08:04:51;0.10;;;0.10;;
19651;SDS011;9974;52.146;14.668;2023-08-24T08:07:21;0.43;;;0.35;;
19651;SDS011;9974;52.146;14.668;2023-08-24T08:09:47;0.85;;;0.50;;
19651;SDS011;9974;52.146;14.668;2023-08-24T08:12:13;0.15;;;0.10;;
19651;SDS011;9974;52.146;14.668;2023-08-24T08:14:39;0.22;;;0.17;;
19651;SDS011;9974;52.146;14.668;2023-08-24T08:17:04;2.97;;;1.13;;
19651;SDS011;9974;52.146;14.668;2023-08-24T08:19:30;0.40;;;0.40;;
19651;SDS011;9974;52.146;14.668;2023-08-24T08:21:57;0.32;;;0.32;;
19651;SDS011;9974;52.146;14.668;2023-08-24T08:24:23;0.10;;;0.10;;
19651;SDS011;9974;52.146;14.668;2023-08-24T08:26:48;0.10;;;0.10;;
19651;SDS011;9974;52.146;14.668;2023-08-24T08:29:14;0.00;;;0.00;;
19651;SDS011;9974;52.146;14.668;2023-08-24T08:31:41;0.32;;;0.28;;
19651;SDS011;9974;52.146;14.668;2023-08-24T08:34:07;0.10;;;0.10;;
19651;SDS011;9974;52.146;14.668;2023-08-24T08:36:32;0.28;;;0.20;;
19651;SDS011;9974;52.146;14.668;2023-08-24T08:38:58;0.00;;;0.00;;
19651;SDS011;9974;52.146;14.668;2023-08-24T08:41:25;0.00;;;0.00;;
19651;SDS011;9974;52.146;14.668;2023-08-24T08:43:55;0.35;;;0.35;;
19651;SDS011;9974;52.146;14.668;2023-08-24T08:46:21;0.40;;;0.20;;
19651;SDS011;9974;52.146;14.668;2023-08-24T08:48:47;0.30;;;0.30;;
19651;SDS011;9974;52.146;14.668;2023-08-24T08:51:16;0.10;;;0.10;;
19651;SDS011;9974;52.146;14.668;2023-08-24T08:53:43;0.28;;;0.28;;
19651;SDS011;9974;52.146;14.668;2023-08-24T08:56:09;1.55;;;1.17;;
19651;SDS011;9974;52.146;14.668;2023-08-24T08:58:36;0.13;;;0.13;;
19651;SDS011;9974;52.146;14.668;2023-08-24T09:01:02;0.15;;;0.15;;
19651;SDS011;9974;52.146;14.668;2023-08-24T09:03:29;0.10;;;0.10;;
19651;SDS011;9974;52.146;14.668;2023-08-24T09:05:57;0.28;;;0.22;;
19651;SDS011;9974;52.146;14.668;2023-08-24T09:08:23;0.00;;;0.00;;
19651;SDS011;9974;52.146;14.668;2023-08-24T09:10:54;0.10;;;0.10;;
19651;SDS011;9974;52.146;14.668;2023-08-24T09:13:20;0.08;;;0.08;;
19651;SDS011;9974;52.146;14.668;2023-08-24T09:15:46;1.75;;;0.38;;
19651;SDS011;9974;52.146;14.668;2023-08-24T09:18:12;0.00;;;0.00;;
19651;SDS011;9974;52.146;14.668;2023-08-24T09:20:37;0.00;;;0.00;;
19651;SDS011;9974;52.146;14.668;2023-08-24T09:23:03;0.30;;;0.30;;
19651;SDS011;9974;52.146;14.668;2023-08-24T09:25:29;0.00;;;0.00;;
19651;SDS011;9974;52.146;14.668;2023-08-24T09:28:01;0.40;;;0.40;;
19651;SDS011;9974;52.146;14.668;2023-08-24T09:30:32;0.00;;;0.00;;
19651;SDS011;9974;52.146;14.668;2023-08-24T09:33:01;0.30;;;0.30;;
19651;SDS011;9974;52.146;14.668;2023-08-24T09:35:36;0.20;;;0.20;;
19651;SDS011;9974;52.146;14.668;2023-08-24T09:38:22;0.00;;;0.00;;
19651;SDS011;9974;52.146;14.668;2023-08-24T09:40:51;0.68;;;0.57;;
19651;SDS011;9974;52.146;14.668;2023-08-24T09:43:19;2.58;;;0.35;;
19651;SDS011;9974;52.146;14.668;2023-08-24T09:45:55;2.95;;;0.55;;
19651;SDS011;9974;52.146;14.668;2023-08-24T09:48:22;0.00;;;0.00;;
19651;SDS011;9974;52.146;14.668;2023-08-24T09:50:49;0.10;;;0.10;;
19651;SDS011;9974;52.146;14.668;2023-08-24T09:53:17;0.03;;;0.03;;
19651;SDS011;9974;52.146;14.668;2023-08-24T09:55:54;0.73;;;0.73;;
19651;SDS011;9974;52.146;14.668;2023-08-24T09:58:24;0.32;;;0.30;;
19651;SDS011;9974;52.146;14.668;2023-08-24T10:00:50;0.40;;;0.40;;
19651;SDS011;9974;52.146;14.668;2023-08-24T10:03:20;2.85;;;1.10;;
19651;SDS011;9974;52.146;14.668;2023-08-24T10:05:51;0.08;;;0.08;;
19651;SDS011;9974;52.146;14.668;2023-08-24T10:08:32;0.15;;;0.15;;
19651;SDS011;9974;52.146;14.668;2023-08-24T10:11:05;1.00;;;0.55;;
19651;SDS011;9974;52.146;14.668;2023-08-24T10:16:15;0.75;;;0.57;;
19651;SDS011;9974;52.146;14.668;2023-08-24T10:18:43;3.83;;;0.98;;
19651;SDS011;9974;52.146;14.668;2023-08-24T10:21:09;4.57;;;0.90;;
19651;SDS011;9974;52.146;14.668;2023-08-24T10:23:36;0.68;;;0.50;;
19651;SDS011;9974;52.146;14.668;2023-08-24T10:26:03;0.47;;;0.40;;
19651;SDS011;9974;52.146;14.668;2023-08-24T10:28:32;0.00;;;0.00;;
19651;SDS011;9974;52.146;14.668;2023-08-24T10:30:59;0.10;;;0.10;;
19651;SDS011;9974;52.146;14.668;2023-08-24T10:33:26;1.15;;;0.50;;
19651;SDS011;9974;52.146;14.668;2023-08-24T10:35:52;0.28;;;0.28;;
19651;SDS011;9974;52.146;14.668;2023-08-24T10:38:28;0.00;;;0.00;;
19651;SDS011;9974;52.146;14.668;2023-08-24T10:41:01;7.88;;;0.47;;
19651;SDS011;9974;52.146;14.668;2023-08-24T10:43:29;0.63;;;0.30;;
19651;SDS011;9974;52.146;14.668;2023-08-24T10:46:01;0.20;;;0.20;;
19651;SDS011;9974;52.146;14.668;2023-08-24T10:53:39;0.38;;;0.32;;
19651;SDS011;9974;52.146;14.668;2023-08-24T10:56:15;0.20;;;0.20;;
19651;SDS011;9974;52.146;14.668;2023-08-24T10:58:46;2.08;;;0.95;;
19651;SDS011;9974;52.146;14.668;2023-08-24T11:01:16;0.10;;;0.10;;
19651;SDS011;9974;52.146;14.668;2023-08-24T11:03:48;0.20;;;0.20;;
19651;SDS011;9974;52.146;14.668;2023-08-24T11:06:22;0.13;;;0.13;;
19651;SDS011;9974;52.146;14.668;2023-08-24T11:09:09;2.38;;;0.77;;
19651;SDS011;9974;52.146;14.668;2023-08-24T11:11:39;0.20;;;0.20;;
19651;SDS011;9974;52.146;14.668;2023-08-24T11:14:19;0.10;;;0.10;;
19651;SDS011;9974;52.146;14.668;2023-08-24T11:16:47;0.00;;;0.00;;
19651;SDS011;9974;52.146;14.668;2023-08-24T11:19:14;0.73;;;0.40;;
19651;SDS011;9974;52.146;14.668;2023-08-24T11:21:42;0.03;;;0.03;;
19651;SDS011;9974;52.146;14.668;2023-08-24T11:24:13;0.47;;;0.25;;
19651;SDS011;9974;52.146;14.668;2023-08-24T11:26:44;0.10;;;0.10;;
19651;SDS011;9974;52.146;14.668;2023-08-24T11:29:12;0.35;;;0.22;;
19651;SDS011;9974;52.146;14.668;2023-08-24T11:31:38;0.00;;;0.00;;
19651;SDS011;9974;52.146;14.668;2023-08-24T11:34:04;0.40;;;0.30;;
19651;SDS011;9974;52.146;14.668;2023-08-24T11:36:36;1.80;;;1.17;;
19651;SDS011;9974;52.146;14.668;2023-08-24T11:39:15;0.00;;;0.00;;
19651;SDS011;9974;52.146;14.668;2023-08-24T11:41:45;0.00;;;0.00;;
19651;SDS011;9974;52.146;14.668;2023-08-24T11:44:29;0.15;;;0.15;;
19651;SDS011;9974;52.146;14.668;2023-08-24T11:47:12;0.38;;;0.35;;
19651;SDS011;9974;52.146;14.668;2023-08-24T11:49:39;0.20;;;0.17;;
19651;SDS011;9974;52.146;14.668;2023-08-24T11:52:05;0.40;;;0.30;;
19651;SDS011;9974;52.146;14.668;2023-08-24T11:54:34;0.20;;;0.20;;
19651;SDS011;9974;52.146;14.668;2023-08-24T11:57:07;0.40;;;0.15;;
19651;SDS011;9974;52.146;14.668;2023-08-24T11:59:34;0.00;;;0.00;;
19651;SDS011;9974;52.146;14.668;2023-08-24T12:02:04;0.30;;;0.30;;
19651;SDS011;9974;52.146;14.668;2023-08-24T12:04:39;0.55;;;0.30;;
19651;SDS011;9974;52.146;14.668;2023-08-24T12:07:10;0.00;;;0.00;;
19651;SDS011;9974;52.146;14.668;2023-08-24T12:09:38;0.08;;;0.08;;
19651;SDS011;9974;52.146;14.668;2023-08-24T12:12:04;0.08;;;0.08;;
19651;SDS011;9974;52.146;14.668;2023-08-24T12:14:39;0.00;;;0.00;;
19651;SDS011;9974;52.146;14.668;2023-08-24T12:17:12;0.50;;;0.17;;
19651;SDS011;9974;52.146;14.668;2023-08-24T12:19:42;0.20;;;0.20;;
19651;SDS011;9974;52.146;14.668;2023-08-24T12:22:13;0.25;;;0.15;;
19651;SDS011;9974;52.146;14.668;2023-08-24T12:24:45;0.43;;;0.13;;
19651;SDS011;9974;52.146;14.668;2023-08-24T12:27:22;0.15;;;0.13;;
19651;SDS011;9974;52.146;14.668;2023-08-24T12:29:49;0.00;;;0.00;;
19651;SDS011;9974;52.146;14.668;2023-08-24T12:32:16;0.20;;;0.20;;
19651;SDS011;9974;52.146;14.668;2023-08-24T12:34:48;1.00;;;0.65;;
19651;SDS011;9974;52.146;14.668;2023-08-24T12:37:16;0.43;;;0.43;;
19651;SDS011;9974;52.146;14.668;2023-08-24T12:39:42;0.10;;;0.10;;
19651;SDS011;9974;52.146;14.668;2023-08-24T12:42:08;0.20;;;0.20;;
19651;SDS011;9974;52.146;14.668;2023-08-24T12:44:33;0.10;;;0.10;;
19651;SDS011;9974;52.146;14.668;2023-08-24T12:47:00;0.28;;;0.20;;
19651;SDS011;9974;52.146;14.668;2023-08-24T12:49:27;3.20;;;0.43;;
19651;SDS011;9974;52.146;14.668;2023-08-24T12:51:53;0.00;;;0.00;;
19651;SDS011;9974;52.146;14.668;2023-08-24T12:54:18;0.43;;;0.35;;
19651;SDS011;9974;52.146;14.668;2023-08-24T12:56:44;1.00;;;0.30;;
19651;SDS011;9974;52.146;14.668;2023-08-24T12:59:10;1.65;;;0.52;;
19651;SDS011;9974;52.146;14.668;2023-08-24T13:01:36;0.45;;;0.43;;
19651;SDS011;9974;52.146;14.668;2023-08-24T13:04:03;1.70;;;0.63;;
19651;SDS011;9974;52.146;14.668;2023-08-24T13:06:30;0.13;;;0.10;;
19651;SDS011;9974;52.146;14.668;2023-08-24T13:08:55;0.22;;;0.22;;
19651;SDS011;9974;52.146;14.668;2023-08-24T13:11:21;0.00;;;0.00;;
19651;SDS011;9974;52.146;14.668;2023-08-24T13:13:47;0.13;;;0.13;;
19651;SDS011;9974;52.146;14.668;2023-08-24T13:16:14;1.13;;;0.80;;
19651;SDS011;9974;52.146;14.668;2023-08-24T13:18:40;0.00;;;0.00;;
19651;SDS011;9974;52.146;14.668;2023-08-24T13:21:07;0.82;;;0.57;;
19651;SDS011;9974;52.146;14.668;2023-08-24T13:23:33;0.10;;;0.10;;
19651;SDS011;9974;52.146;14.668;2023-08-24T13:25:59;0.13;;;0.13;;
19651;SDS011;9974;52.146;14.668;2023-08-24T13:28:25;0.45;;;0.30;;
19651;SDS011;9974;52.146;14.668;2023-08-24T13:30:51;0.05;;;0.05;;
19651;SDS011;9974;52.146;14.668;2023-08-24T13:33:17;0.20;;;0.20;;
19651;SDS011;9974;52.146;14.668;2023-08-24T13:35:44;0.32;;;0.20;;
19651;SDS011;9974;52.146;14.668;2023-08-24T13:38:10;0.35;;;0.35;;
19651;SDS011;9974;52.146;14.668;2023-08-24T13:40:36;0.00;;;0.00;;
19651;SDS011;9974;52.146;14.668;2023-08-24T13:43:01;0.45;;;0.35;;
19651;SDS011;9974;52.146;14.668;2023-08-24T13:45:27;0.20;;;0.20;;
19651;SDS011;9974;52.146;14.668;2023-08-24T13:47:55;0.60;;;0.15;;
19651;SDS011;9974;52.146;14.668;2023-08-24T13:50:22;1.35;;;0.63;;
19651;SDS011;9974;52.146;14.668;2023-08-24T13:52:48;0.22;;;0.10;;
19651;SDS011;9974;52.146;14.668;2023-08-24T13:55:14;0.00;;;0.00;;
19651;SDS011;9974;52.146;14.668;2023-08-24T13:57:42;0.57;;;0.30;;
19651;SDS011;9974;52.146;14.668;2023-08-24T14:00:08;0.57;;;0.30;;
19651;SDS011;9974;52.146;14.668;2023-08-24T14:02:34;0.22;;;0.20;;
19651;SDS011;9974;52.146;14.668;2023-08-24T14:04:59;0.25;;;0.25;;
19651;SDS011;9974;52.146;14.668;2023-08-24T14:07:26;0.10;;;0.10;;
19651;SDS011;9974;52.146;14.668;2023-08-24T14:09:51;0.15;;;0.15;;
19651;SDS011;9974;52.146;14.668;2023-08-24T14:12:17;0.00;;;0.00;;
19651;SDS011;9974;52.146;14.668;2023-08-24T14:14:43;0.25;;;0.20;;
19651;SDS011;9974;52.146;14.668;2023-08-24T14:17:08;0.00;;;0.00;;
19651;SDS011;9974;52.146;14.668;2023-08-24T14:19:34;4.57;;;0.43;;
19651;SDS011;9974;52.146;14.668;2023-08-24T14:22:00;0.22;;;0.22;;
19651;SDS011;9974;52.146;14.668;2023-08-24T14:24:25;0.00;;;0.00;;
19651;SDS011;9974;52.146;14.668;2023-08-24T14:26:51;0.10;;;0.10;;
19651;SDS011;9974;52.146;14.668;2023-08-24T14:29:17;0.57;;;0.55;;
19651;SDS011;9974;52.146;14.668;2023-08-24T14:31:43;0.22;;;0.20;;
19651;SDS011;9974;52.146;14.668;2023-08-24T14:34:08;0.25;;;0.25;;
19651;SDS011;9974;52.146;14.668;2023-08-24T14:36:34;0.00;;;0.00;;
19651;SDS011;9974;52.146;14.668;2023-08-24T14:39:00;0.85;;;0.70;;
19651;SDS011;9974;52.146;14.668;2023-08-24T14:41:26;2.25;;;0.30;;
19651;SDS011;9974;52.146;14.668;2023-08-24T14:43:52;0.90;;;0.60;;
19651;SDS011;9974;52.146;14.668;2023-08-24T14:46:18;0.13;;;0.13;;
19651;SDS011;9974;52.146;14.668;2023-08-24T14:48:43;0.68;;;0.68;;
19651;SDS011;9974;52.146;14.668;2023-08-24T14:51:09;0.20;;;0.20;;
19651;SDS011;9974;52.146;14.668;2023-08-24T14:53:35;0.32;;;0.20;;
19651;SDS011;9974;52.146;14.668;2023-08-24T14:56:00;0.17;;;0.17;;
19651;SDS011;9974;52.146;14.668;2023-08-24T14:58:27;0.38;;;0.38;;
19651;SDS011;9974;52.146;14.668;2023-08-24T15:00:53;0.22;;;0.22;;
19651;SDS011;9974;52.146;14.668;2023-08-24T15:03:22;0.57;;;0.15;;
19651;SDS011;9974;52.146;14.668;2023-08-24T15:05:59;0.10;;;0.10;;